Time;durP1;ratioP1;P1;durP2;ratioP2;P2;SDS_P1;SDS_P2;PMS_P1;PMS_P2;Temp;Humidity;BMP_temperature;BMP_pressure;BME280_temperature;BME280_humidity;BME280_pressure;Samples;Min_cycle;Max_cycle;Signal;HPM_P1;HPM_P2
2022/12/18 00:00:46;;;;;;;2.75;2.58;;;-6.10;99.90;;;;;;5093912;28;20325;-74
2022/12/18 00:03:13;;;;;;;0.50;0.40;;;-6.00;99.90;;;;;;5089720;28;20280;-73
2022/12/18 00:05:48;;;;;;;0.93;0.93;;;-6.00;99.90;;;;;;5091774;28;20205;-74
2022/12/18 00:08:15;;;;;;;1.55;1.45;;;-6.00;99.90;;;;;;5093398;28;20192;-73
2022/12/18 00:10:42;;;;;;;0.50;0.50;;;-6.10;99.90;;;;;;5093841;28;20608;-75
2022/12/18 00:13:10;;;;;;;0.50;0.40;;;-6.10;99.90;;;;;;5093833;28;20666;-74
2022/12/18 00:15:37;;;;;;;0.50;0.40;;;-6.10;99.90;;;;;;5091743;28;20646;-74
2022/12/18 00:18:04;;;;;;;0.60;0.60;;;-6.10;99.90;;;;;;5093305;28;20193;-74
2022/12/18 00:20:31;;;;;;;0.50;0.43;;;-6.20;99.90;;;;;;5093696;28;20714;-74
2022/12/18 00:22:59;;;;;;;0.50;0.40;;;-6.20;99.90;;;;;;5093500;28;20276;-74
2022/12/18 00:25:26;;;;;;;0.50;0.40;;;-6.30;99.90;;;;;;5093243;28;20283;-74
2022/12/18 00:27:53;;;;;;;2.08;2.05;;;-6.40;99.90;;;;;;5093949;28;20198;-74
2022/12/18 00:30:20;;;;;;;0.50;0.50;;;-6.50;99.90;;;;;;5082107;28;20201;-74
2022/12/18 00:32:46;;;;;;;0.60;0.50;;;-6.50;99.90;;;;;;5090500;28;20313;-74
2022/12/18 00:35:13;;;;;;;1.67;1.58;;;-6.60;99.90;;;;;;5091696;28;20197;-74
2022/12/18 00:37:40;;;;;;;0.90;0.90;;;-6.50;99.90;;;;;;5089726;28;20224;-74
2022/12/18 00:40:10;;;;;;;9.43;8.23;;;-6.60;99.90;;;;;;5092532;28;20190;-74
2022/12/18 00:45:21;;;;;;;1.45;1.42;;;-6.50;99.90;;;;;;5086903;28;20677;-74
2022/12/18 00:47:48;;;;;;;5.47;2.97;;;-6.50;99.90;;;;;;5091805;28;20193;-74
2022/12/18 00:50:15;;;;;;;7.10;6.60;;;-6.50;99.90;;;;;;5091260;28;20201;-75
2022/12/18 00:52:42;;;;;;;0.50;0.40;;;-6.50;99.90;;;;;;5090217;28;20207;-75
2022/12/18 00:55:11;;;;;;;0.50;0.50;;;-6.60;99.90;;;;;;5089149;28;20276;-74
2022/12/18 00:57:37;;;;;;;2.60;2.42;;;-6.70;99.90;;;;;;5090764;28;20551;-74
2022/12/18 01:00:06;;;;;;;0.75;0.75;;;-6.70;99.90;;;;;;5090917;28;20685;-74
2022/12/18 01:02:33;;;;;;;0.50;0.40;;;-6.70;99.90;;;;;;5090831;28;20658;-74
2022/12/18 01:05:00;;;;;;;1.13;1.13;;;-6.80;99.90;;;;;;5090123;28;20605;-74
2022/12/18 01:07:26;;;;;;;2.38;2.28;;;-6.90;99.90;;;;;;5089891;28;20301;-74
2022/12/18 01:09:53;;;;;;;1.35;1.33;;;-6.90;99.90;;;;;;5089621;28;20283;-75
2022/12/18 01:12:22;;;;;;;0.60;0.60;;;-6.90;99.90;;;;;;5092594;28;20706;-74
2022/12/18 01:14:48;;;;;;;1.50;0.77;;;-6.90;99.90;;;;;;5091657;28;20300;-74
2022/12/18 01:17:15;;;;;;;0.50;0.40;;;-6.90;99.90;;;;;;5091057;28;20199;-74
2022/12/18 01:19:42;;;;;;;0.57;0.57;;;-6.90;99.90;;;;;;5092637;28;20629;-75
2022/12/18 01:22:09;;;;;;;0.50;0.40;;;-6.90;99.90;;;;;;5091235;28;20213;-74
2022/12/18 01:24:36;;;;;;;1.67;1.58;;;-6.90;99.90;;;;;;5091346;28;20280;-74
2022/12/18 01:27:03;;;;;;;1.55;0.98;;;-7.00;99.90;;;;;;5091366;28;20304;-74
2022/12/18 01:29:31;;;;;;;1.30;1.30;;;-7.00;99.90;;;;;;5092000;28;20189;-74
2022/12/18 01:31:58;;;;;;;0.50;0.50;;;-7.00;99.90;;;;;;5083288;28;20229;-74
2022/12/18 01:34:25;;;;;;;3.83;3.63;;;-6.90;99.90;;;;;;5090398;28;20197;-74
2022/12/18 01:36:52;;;;;;;0.50;0.40;;;-6.90;99.90;;;;;;5090171;28;20197;-74
2022/12/18 01:39:20;;;;;;;2.45;2.35;;;-6.80;99.90;;;;;;5092150;28;20278;-74
2022/12/18 01:42:02;;;;;;;3.90;3.40;;;-6.90;99.90;;;;;;5091899;28;20217;-74
2022/12/18 01:44:54;;;;;;;0.50;0.40;;;-6.90;99.90;;;;;;5091138;28;20188;-74
2022/12/18 01:47:24;;;;;;;2.63;2.53;;;-6.90;99.90;;;;;;5089850;28;20259;-74
2022/12/18 01:49:51;;;;;;;2.15;2.05;;;-7.00;99.90;;;;;;5091783;28;20182;-74
2022/12/18 01:52:19;;;;;;;1.58;1.48;;;-7.00;99.90;;;;;;5091826;28;20214;-73
2022/12/18 01:54:47;;;;;;;0.60;0.60;;;-7.00;99.90;;;;;;5091056;28;20563;-73
2022/12/18 01:57:14;;;;;;;0.50;0.40;;;-7.10;99.90;;;;;;5088178;28;20193;-72
2022/12/18 01:59:43;;;;;;;7.15;6.75;;;-7.10;99.90;;;;;;5090531;28;20190;-73
2022/12/18 02:02:12;;;;;;;4.75;4.32;;;-7.00;99.90;;;;;;5090391;28;20217;-73
2022/12/18 02:04:39;;;;;;;28.88;25.88;;;-7.10;99.90;;;;;;5090620;28;20185;-73
2022/12/18 02:07:12;;;;;;;4.32;4.13;;;-7.10;99.90;;;;;;5089029;28;20213;-74
2022/12/18 02:09:45;;;;;;;0.75;0.75;;;-7.10;99.90;;;;;;5090984;28;20204;-73
2022/12/18 02:12:17;;;;;;;0.50;0.40;;;-7.10;99.90;;;;;;5091522;28;20308;-73
2022/12/18 02:14:48;;;;;;;0.50;0.40;;;-7.20;99.90;;;;;;5090786;28;20672;-73
2022/12/18 02:17:21;;;;;;;1.17;1.17;;;-7.20;99.90;;;;;;5090380;28;20589;-73
2022/12/18 02:20:03;;;;;;;1.58;1.58;;;-7.10;99.90;;;;;;5090326;28;20301;-74
2022/12/18 02:22:40;;;;;;;5.70;4.88;;;-7.10;99.90;;;;;;5091162;28;20212;-73
2022/12/18 02:25:17;;;;;;;1.45;1.35;;;-7.10;99.90;;;;;;5089408;28;20625;-73
2022/12/18 02:27:48;;;;;;;22.63;19.35;;;-7.10;99.90;;;;;;5089876;28;20216;-76
2022/12/18 02:30:16;;;;;;;2.72;2.53;;;-7.20;99.90;;;;;;5085313;28;20689;-75
2022/12/18 02:32:46;;;;;;;4.28;3.97;;;-7.00;99.90;;;;;;5088710;28;20195;-75
2022/12/18 02:35:16;;;;;;;10.73;6.35;;;-6.80;99.90;;;;;;5090359;28;20685;-75
2022/12/18 02:37:46;;;;;;;1.05;1.05;;;-6.50;99.90;;;;;;5090532;28;20242;-75
2022/12/18 02:40:14;;;;;;;0.55;0.52;;;-6.30;99.90;;;;;;5091112;28;20275;-72
2022/12/18 02:42:41;;;;;;;0.50;0.40;;;-5.90;99.90;;;;;;5090255;28;20189;-73
2022/12/18 02:45:10;;;;;;;0.50;0.40;;;-5.50;99.90;;;;;;5090631;28;20193;-73
2022/12/18 02:47:41;;;;;;;0.40;0.40;;;-5.30;99.90;;;;;;5089427;28;20213;-73
2022/12/18 02:50:14;;;;;;;0.40;0.40;;;-5.20;99.90;;;;;;5090727;28;20275;-73
2022/12/18 02:52:51;;;;;;;0.68;0.68;;;-5.30;99.90;;;;;;5090820;28;20269;-73
2022/12/18 02:55:28;;;;;;;0.50;0.50;;;-5.60;99.90;;;;;;5089590;28;20276;-73
2022/12/18 02:57:57;;;;;;;3.53;3.33;;;-5.80;99.90;;;;;;5085528;28;20194;-73
2022/12/18 03:00:31;;;;;;;10.45;9.85;;;-6.00;99.90;;;;;;5090874;28;20560;-73
2022/12/18 03:03:05;;;;;;;4.97;4.53;;;-6.10;99.90;;;;;;5070885;28;20260;-73
2022/12/18 03:05:36;;;;;;;0.50;0.50;;;-6.20;99.90;;;;;;5086264;28;20278;-73
2022/12/18 03:08:07;;;;;;;1.58;1.58;;;-6.30;99.90;;;;;;5090344;28;20213;-73
2022/12/18 03:10:40;;;;;;;3.08;2.90;;;-6.50;99.90;;;;;;5090775;28;20218;-74
2022/12/18 03:13:12;;;;;;;4.95;4.63;;;-6.60;99.90;;;;;;5091297;28;20182;-72
2022/12/18 03:15:46;;;;;;;0.50;0.50;;;-6.70;99.90;;;;;;5088429;28;20203;-73
2022/12/18 03:18:17;;;;;;;0.50;0.40;;;-6.80;99.90;;;;;;5088918;28;20203;-73
2022/12/18 03:20:46;;;;;;;0.50;0.50;;;-6.80;99.90;;;;;;5090619;28;20718;-73
2022/12/18 03:23:16;;;;;;;0.70;0.70;;;-6.80;99.90;;;;;;5090321;28;20206;-75
2022/12/18 03:25:47;;;;;;;0.50;0.50;;;-6.90;99.90;;;;;;5089982;28;20204;-75
2022/12/18 03:28:17;;;;;;;3.38;2.78;;;-6.90;99.90;;;;;;5090101;28;20301;-73
2022/12/18 03:30:48;;;;;;;1.17;1.17;;;-7.00;99.90;;;;;;5082796;28;20222;-73
2022/12/18 03:33:20;;;;;;;0.60;0.60;;;-7.00;99.90;;;;;;5090295;28;20212;-73
2022/12/18 03:35:47;;;;;;;1.52;1.42;;;-7.10;99.90;;;;;;5089511;28;20220;-73
2022/12/18 03:38:15;;;;;;;0.50;0.50;;;-7.10;99.90;;;;;;5088900;28;20262;-73
2022/12/18 03:40:54;;;;;;;0.50;0.50;;;-7.20;99.90;;;;;;5090130;28;20296;-73
2022/12/18 03:43:32;;;;;;;14.23;13.18;;;-7.20;99.90;;;;;;5090352;28;20185;-72
2022/12/18 03:46:06;;;;;;;2.85;2.75;;;-7.10;99.90;;;;;;5093104;28;20222;-72
2022/12/18 03:48:39;;;;;;;0.57;0.57;;;-7.10;99.90;;;;;;5092795;28;20193;-73
2022/12/18 03:51:10;;;;;;;2.50;2.35;;;-7.00;99.90;;;;;;5092036;28;20209;-71
2022/12/18 03:53:42;;;;;;;1.05;0.98;;;-6.90;99.90;;;;;;5093682;28;20224;-73
2022/12/18 03:56:10;;;;;;;8.15;6.80;;;-7.00;99.90;;;;;;5091736;28;20193;-73
2022/12/18 03:58:39;;;;;;;1.80;1.70;;;-7.00;99.90;;;;;;5093774;28;20185;-73
2022/12/18 04:01:09;;;;;;;0.50;0.40;;;-7.10;99.90;;;;;;5091848;28;20303;-72
2022/12/18 04:03:37;;;;;;;2.80;2.60;;;-7.10;99.90;;;;;;5093930;28;20193;-73
2022/12/18 04:06:06;;;;;;;1.75;1.65;;;-7.20;99.90;;;;;;5092294;28;20193;-73
2022/12/18 04:08:34;;;;;;;4.40;4.20;;;-7.20;99.90;;;;;;5092218;28;20561;-73
2022/12/18 04:11:01;;;;;;;0.50;0.40;;;-7.30;99.90;;;;;;5093241;28;20303;-73
2022/12/18 04:13:30;;;;;;;1.17;1.17;;;-7.30;99.90;;;;;;5092710;28;20204;-73
2022/12/18 04:15:57;;;;;;;0.50;0.40;;;-7.30;99.90;;;;;;5092913;28;20193;-73
2022/12/18 04:18:25;;;;;;;0.50;0.40;;;-7.40;99.90;;;;;;5091392;28;20185;-73
2022/12/18 04:20:52;;;;;;;0.50;0.40;;;-7.40;99.90;;;;;;5092881;28;20243;-73
2022/12/18 04:23:19;;;;;;;1.02;1.02;;;-7.40;99.90;;;;;;5093131;28;20189;-73
2022/12/18 04:25:47;;;;;;;0.50;0.40;;;-7.40;99.90;;;;;;5092948;28;20300;-73
2022/12/18 04:28:14;;;;;;;4.85;4.43;;;-7.40;99.90;;;;;;5092010;28;20210;-73
2022/12/18 04:30:41;;;;;;;0.50;0.50;;;-7.40;99.90;;;;;;5091420;28;20217;-73
2022/12/18 04:33:10;;;;;;;0.50;0.45;;;-7.30;99.90;;;;;;5093183;28;20600;-73
2022/12/18 04:35:38;;;;;;;0.55;0.55;;;-7.30;99.90;;;;;;5092890;28;20217;-73
2022/12/18 04:38:06;;;;;;;0.63;0.63;;;-7.30;99.90;;;;;;5092227;28;20662;-73
2022/12/18 04:40:33;;;;;;;5.32;3.53;;;-7.20;99.90;;;;;;5092355;28;20213;-72
2022/12/18 04:43:00;;;;;;;0.50;0.50;;;-7.30;99.90;;;;;;5093033;28;20229;-73
2022/12/18 04:45:27;;;;;;;0.50;0.40;;;-7.20;99.90;;;;;;5092168;28;20197;-73
2022/12/18 04:47:53;;;;;;;0.50;0.50;;;-7.20;99.90;;;;;;5093084;28;20217;-73
2022/12/18 04:50:20;;;;;;;1.05;1.05;;;-7.20;99.90;;;;;;5091787;28;20228;-73
2022/12/18 04:52:48;;;;;;;0.50;0.50;;;-7.20;99.90;;;;;;5092286;28;20268;-73
2022/12/18 04:55:15;;;;;;;0.50;0.40;;;-7.20;99.90;;;;;;5092428;28;20276;-73
2022/12/18 04:57:42;;;;;;;1.55;1.48;;;-7.20;99.90;;;;;;5092961;28;20195;-73
2022/12/18 05:00:10;;;;;;;0.47;0.40;;;-7.20;99.90;;;;;;5091599;28;20300;-73
2022/12/18 05:02:37;;;;;;;0.68;0.68;;;-7.20;99.90;;;;;;5092727;28;20276;-73
2022/12/18 05:05:05;;;;;;;1.77;1.67;;;-7.20;99.90;;;;;;5091858;28;20193;-73
2022/12/18 05:07:31;;;;;;;0.73;0.73;;;-7.20;99.90;;;;;;5092291;28;20240;-73
2022/12/18 05:10:00;;;;;;;5.55;5.07;;;-7.20;99.90;;;;;;5091533;28;20280;-75
2022/12/18 05:12:27;;;;;;;0.50;0.50;;;-7.20;99.90;;;;;;5091766;28;20300;-75
2022/12/18 05:14:53;;;;;;;2.70;2.60;;;-7.10;99.90;;;;;;5071454;28;20280;-73
2022/12/18 05:17:20;;;;;;;0.50;0.40;;;-7.00;99.90;;;;;;5072121;28;20205;-73
2022/12/18 05:19:47;;;;;;;0.50;0.40;;;-7.00;99.90;;;;;;5090124;28;20190;-73
2022/12/18 05:22:14;;;;;;;0.50;0.40;;;-7.00;99.90;;;;;;5092057;28;20288;-73
2022/12/18 05:24:41;;;;;;;0.50;0.50;;;-7.10;99.90;;;;;;5090224;28;20225;-73
2022/12/18 05:27:09;;;;;;;0.50;0.40;;;-7.10;99.90;;;;;;5092108;28;20558;-74
2022/12/18 05:29:36;;;;;;;33.72;13.63;;;-7.00;99.90;;;;;;5088791;28;20195;-73
2022/12/18 05:32:03;;;;;;;0.50;0.40;;;-7.00;99.90;;;;;;5084463;28;20774;-73
2022/12/18 05:34:29;;;;;;;1.55;1.55;;;-7.00;99.90;;;;;;5091135;28;20659;-73
2022/12/18 05:36:56;;;;;;;0.80;0.80;;;-7.00;99.90;;;;;;5092121;28;20190;-73
2022/12/18 05:39:23;;;;;;;2.15;2.05;;;-7.00;99.90;;;;;;5088636;28;20202;-73
2022/12/18 05:41:50;;;;;;;0.50;0.40;;;-7.00;99.90;;;;;;5091189;28;20212;-74
2022/12/18 05:44:18;;;;;;;0.50;0.50;;;-7.00;99.90;;;;;;5091265;28;20224;-73
2022/12/18 05:46:45;;;;;;;0.82;0.82;;;-7.00;99.90;;;;;;5091873;28;20194;-73
2022/12/18 05:49:12;;;;;;;4.43;4.03;;;-6.90;99.90;;;;;;5091819;28;20221;-73
2022/12/18 05:51:39;;;;;;;0.40;0.40;;;-6.90;99.90;;;;;;5091229;28;20713;-73
2022/12/18 05:54:05;;;;;;;0.50;0.40;;;-7.00;99.90;;;;;;5089534;28;20205;-73
2022/12/18 05:56:32;;;;;;;0.50;0.40;;;-7.00;99.90;;;;;;5091586;28;20622;-73
2022/12/18 05:58:59;;;;;;;0.50;0.40;;;-7.10;99.90;;;;;;5091659;28;20282;-74
2022/12/18 06:01:28;;;;;;;0.50;0.40;;;-7.10;99.90;;;;;;5090633;28;20213;-73
2022/12/18 06:03:56;;;;;;;0.80;0.80;;;-7.10;99.90;;;;;;5090983;28;20629;-73
2022/12/18 06:06:24;;;;;;;0.50;0.40;;;-7.00;99.90;;;;;;5090690;28;20201;-73
2022/12/18 06:08:52;;;;;;;1.48;1.48;;;-6.90;99.90;;;;;;5089461;28;20297;-73
2022/12/18 06:11:21;;;;;;;0.50;0.40;;;-6.90;99.90;;;;;;5090418;28;20266;-73
2022/12/18 06:13:51;;;;;;;0.50;0.40;;;-6.90;99.90;;;;;;5090856;28;20236;-73
2022/12/18 06:16:18;;;;;;;0.40;0.40;;;-7.00;99.90;;;;;;5091052;28;20208;-73
2022/12/18 06:18:46;;;;;;;0.50;0.40;;;-7.00;99.90;;;;;;5091475;28;20228;-73
2022/12/18 06:21:14;;;;;;;0.40;0.40;;;-7.00;99.90;;;;;;5088939;28;20591;-73
2022/12/18 06:23:41;;;;;;;0.40;0.40;;;-7.00;99.90;;;;;;5090951;28;20228;-74
2022/12/18 06:26:11;;;;;;;0.57;0.57;;;-7.00;99.90;;;;;;5090865;28;20193;-73
2022/12/18 06:28:38;;;;;;;0.50;0.40;;;-7.00;99.90;;;;;;5090003;28;20205;-73
2022/12/18 06:31:06;;;;;;;0.50;0.40;;;-7.00;99.90;;;;;;5082179;28;20252;-73
2022/12/18 06:33:33;;;;;;;0.50;0.40;;;-7.00;99.90;;;;;;5090705;28;20632;-74
2022/12/18 06:36:04;;;;;;;0.45;0.40;;;-7.00;99.90;;;;;;5090535;28;20201;-73
2022/12/18 06:38:32;;;;;;;0.40;0.40;;;-7.00;99.90;;;;;;5089963;28;20221;-73
2022/12/18 06:40:59;;;;;;;0.43;0.40;;;-6.90;99.90;;;;;;5090583;28;20252;-73
2022/12/18 06:43:26;;;;;;;0.47;0.40;;;-7.00;99.90;;;;;;5088688;28;20905;-73
2022/12/18 06:46:00;;;;;;;0.50;0.40;;;-6.90;99.90;;;;;;5081551;28;20244;-73
2022/12/18 06:48:26;;;;;;;0.50;0.40;;;-6.90;99.90;;;;;;5091254;28;20293;-73
2022/12/18 06:50:53;;;;;;;7.72;2.30;;;-6.90;99.90;;;;;;5089600;28;20595;-73
2022/12/18 06:53:22;;;;;;;1.25;1.25;;;-6.90;99.90;;;;;;5090653;28;20276;-73
2022/12/18 06:55:49;;;;;;;0.50;0.40;;;-6.90;99.90;;;;;;5090195;28;20193;-73
2022/12/18 06:58:16;;;;;;;3.70;3.50;;;-7.00;99.90;;;;;;5090850;28;20221;-73
2022/12/18 07:00:43;;;;;;;0.50;0.40;;;-7.10;99.90;;;;;;5088364;28;20683;-74
2022/12/18 07:03:10;;;;;;;0.50;0.50;;;-7.10;99.90;;;;;;5090451;28;20201;-73
2022/12/18 07:05:41;;;;;;;0.40;0.40;;;-7.10;99.90;;;;;;5090373;28;20201;-73
2022/12/18 07:08:08;;;;;;;0.60;0.60;;;-7.10;99.90;;;;;;5089065;28;20213;-73
2022/12/18 07:10:42;;;;;;;0.47;0.40;;;-7.10;99.90;;;;;;5090825;28;20211;-72
2022/12/18 07:13:08;;;;;;;0.45;0.40;;;-7.10;99.90;;;;;;5090835;28;20583;-73
2022/12/18 07:15:35;;;;;;;0.60;0.60;;;-7.00;99.90;;;;;;5090290;28;20242;-73
2022/12/18 07:18:02;;;;;;;0.50;0.47;;;-7.10;99.90;;;;;;5090858;28;20272;-74
2022/12/18 07:20:30;;;;;;;4.88;1.77;;;-7.00;99.90;;;;;;5092535;28;20224;-75
2022/12/18 07:22:57;;;;;;;0.50;0.40;;;-7.00;99.90;;;;;;5093802;28;20219;-74
2022/12/18 07:25:24;;;;;;;1.23;1.23;;;-7.00;99.90;;;;;;5093898;28;20185;-73
2022/12/18 07:27:52;;;;;;;0.47;0.40;;;-7.00;99.90;;;;;;5093441;28;20213;-74
2022/12/18 07:30:19;;;;;;;0.50;0.50;;;-7.00;99.90;;;;;;5085700;28;20646;-73
2022/12/18 07:32:46;;;;;;;0.60;0.60;;;-7.00;99.90;;;;;;5094349;28;20288;-74
2022/12/18 07:35:13;;;;;;;0.40;0.40;;;-7.00;99.90;;;;;;5093791;28;20285;-74
2022/12/18 07:37:40;;;;;;;0.63;0.63;;;-6.90;99.90;;;;;;5093562;28;20225;-74
2022/12/18 07:40:08;;;;;;;1.10;1.10;;;-6.80;99.90;;;;;;5093533;28;20662;-72
2022/12/18 07:42:35;;;;;;;0.50;0.50;;;-6.80;99.90;;;;;;5093250;28;20742;-72
2022/12/18 07:45:05;;;;;;;0.60;0.60;;;-6.70;99.90;;;;;;5093294;28;20575;-72
2022/12/18 07:47:31;;;;;;;0.50;0.50;;;-6.60;99.90;;;;;;5094098;28;20760;-73
2022/12/18 07:52:37;;;;;;;0.50;0.40;;;-6.60;99.90;;;;;;5042599;28;20210;-73
2022/12/18 07:55:05;;;;;;;1.45;1.45;;;-6.50;99.90;;;;;;5047072;28;20226;-74
2022/12/18 07:57:32;;;;;;;0.50;0.50;;;-6.40;99.90;;;;;;5053638;28;20241;-74
2022/12/18 07:59:59;;;;;;;0.40;0.40;;;-6.40;99.90;;;;;;5054240;28;20286;-74
2022/12/18 08:02:27;;;;;;;0.50;0.40;;;-6.30;99.90;;;;;;5053058;28;20214;-73
2022/12/18 08:04:54;;;;;;;2.00;1.50;;;-6.30;99.90;;;;;;5052845;28;20199;-74
2022/12/18 08:07:21;;;;;;;1.90;1.80;;;-6.20;99.90;;;;;;5053553;28;20195;-73
2022/12/18 08:09:47;;;;;;;1.58;1.48;;;-6.00;99.90;;;;;;5054216;28;20214;-73
2022/12/18 08:12:14;;;;;;;3.25;3.05;;;-6.00;99.90;;;;;;5052195;28;20221;-72
2022/12/18 08:14:41;;;;;;;0.50;0.47;;;-5.80;99.90;;;;;;5052878;28;20193;-73
2022/12/18 08:17:08;;;;;;;1.83;1.70;;;-5.60;99.90;;;;;;5054134;28;20199;-74
2022/12/18 08:19:36;;;;;;;0.50;0.40;;;-5.60;99.90;;;;;;5054586;28;20208;-74
2022/12/18 08:22:03;;;;;;;2.15;2.05;;;-5.50;99.90;;;;;;5043367;28;20238;-75
2022/12/18 08:24:30;;;;;;;3.50;3.35;;;-5.20;99.90;;;;;;5053019;28;20240;-74
2022/12/18 08:26:58;;;;;;;0.60;0.40;;;-4.90;99.90;;;;;;5052997;28;20233;-75
2022/12/18 08:29:24;;;;;;;0.50;0.50;;;-4.60;99.90;;;;;;5052666;28;20206;-72
2022/12/18 08:31:51;;;;;;;4.50;4.15;;;-4.30;99.90;;;;;;5053304;28;20241;-75
2022/12/18 08:34:18;;;;;;;0.50;0.50;;;-4.10;99.90;;;;;;5053222;28;20568;-75
2022/12/18 08:36:46;;;;;;;1.48;1.38;;;-4.00;99.90;;;;;;5050237;28;20204;-74
2022/12/18 08:39:13;;;;;;;0.50;0.40;;;-3.90;99.90;;;;;;5053461;28;20196;-74
2022/12/18 08:41:40;;;;;;;6.28;5.65;;;-3.90;99.90;;;;;;5052703;28;20224;-74
2022/12/18 08:46:52;;;;;;;0.50;0.50;;;-3.70;99.90;;;;;;5053545;28;20320;-76
2022/12/18 08:49:19;;;;;;;0.88;0.88;;;-3.40;99.90;;;;;;5051016;28;20215;-74
2022/12/18 08:51:47;;;;;;;0.50;0.40;;;-2.90;99.90;;;;;;5051730;28;20312;-73
2022/12/18 08:54:14;;;;;;;1.90;1.50;;;-2.30;99.90;;;;;;5050991;28;20288;-74
2022/12/18 08:56:41;;;;;;;0.77;0.75;;;-1.80;99.90;;;;;;5033043;28;20204;-75
2022/12/18 08:59:09;;;;;;;4.13;3.13;;;-1.30;99.90;;;;;;5032360;28;20288;-74
2022/12/18 09:01:36;;;;;;;0.50;0.50;;;-0.90;99.90;;;;;;5033521;28;20726;-75
2022/12/18 09:04:03;;;;;;;0.73;0.73;;;-0.50;99.90;;;;;;5052147;28;20202;-74
2022/12/18 09:06:29;;;;;;;0.95;0.95;;;-0.30;99.90;;;;;;5051024;28;20203;-75
2022/12/18 09:08:58;;;;;;;0.50;0.40;;;-0.10;99.90;;;;;;5052358;28;20224;-74
2022/12/18 09:11:26;;;;;;;0.50;0.40;;;0.20;99.90;;;;;;5052150;28;20306;-75
2022/12/18 09:13:54;;;;;;;0.50;0.50;;;0.40;99.90;;;;;;5051727;28;20209;-72
2022/12/18 09:16:22;;;;;;;0.50;0.40;;;0.60;99.90;;;;;;5050047;28;20277;-72
2022/12/18 09:18:49;;;;;;;0.50;0.50;;;0.70;99.90;;;;;;5050942;28;20199;-73
2022/12/18 09:21:18;;;;;;;0.50;0.50;;;0.80;99.90;;;;;;5051511;28;20221;-74
2022/12/18 09:23:45;;;;;;;0.50;0.50;;;1.00;99.90;;;;;;5052174;28;20321;-73
2022/12/18 09:26:13;;;;;;;0.50;0.50;;;1.20;99.90;;;;;;5050264;28;20322;-70
2022/12/18 09:28:40;;;;;;;0.50;0.40;;;1.30;99.90;;;;;;5043274;28;20768;-74
2022/12/18 09:31:08;;;;;;;0.85;0.82;;;1.50;99.90;;;;;;5051794;28;20296;-72
2022/12/18 09:33:36;;;;;;;2.10;1.60;;;1.70;99.90;;;;;;5051561;28;20248;-74
2022/12/18 09:36:06;;;;;;;0.50;0.40;;;2.40;99.90;;;;;;5049135;28;20571;-74
2022/12/18 09:38:34;;;;;;;0.50;0.40;;;2.90;99.90;;;;;;5032559;28;20195;-74
2022/12/18 09:41:05;;;;;;;0.50;0.45;;;3.30;99.90;;;;;;5048734;28;20221;-74
2022/12/18 09:43:41;;;;;;;0.50;0.50;;;3.30;99.90;;;;;;5049818;28;20190;-74
2022/12/18 09:46:12;;;;;;;0.50;0.40;;;3.20;99.90;;;;;;5046423;28;20295;-74
2022/12/18 09:48:43;;;;;;;1.35;1.25;;;3.00;99.90;;;;;;5047901;28;20205;-73
2022/12/18 09:51:16;;;;;;;1.70;1.23;;;2.60;99.90;;;;;;5047360;28;20222;-75
2022/12/18 09:53:48;;;;;;;0.50;0.40;;;2.40;99.90;;;;;;5051026;28;20190;-76
2022/12/18 09:56:19;;;;;;;2.25;2.15;;;2.30;99.90;;;;;;5050586;28;20191;-75
2022/12/18 09:58:54;;;;;;;0.50;0.50;;;2.30;99.90;;;;;;5043495;28;20206;-75
2022/12/18 10:01:23;;;;;;;0.50;0.40;;;2.30;99.90;;;;;;5046888;28;20216;-74
2022/12/18 10:03:51;;;;;;;1.23;1.23;;;2.30;99.90;;;;;;5044066;28;20281;-74
2022/12/18 10:06:24;;;;;;;0.50;0.50;;;2.20;99.90;;;;;;5050667;28;20201;-74
2022/12/18 10:09:00;;;;;;;0.80;0.80;;;2.10;99.90;;;;;;5049832;28;20199;-76
2022/12/18 10:11:38;;;;;;;0.90;0.90;;;2.20;99.90;;;;;;5047749;28;20214;-76
2022/12/18 10:14:16;;;;;;;0.50;0.40;;;2.10;99.90;;;;;;5030485;28;20199;-75
2022/12/18 10:16:54;;;;;;;0.57;0.57;;;2.20;99.90;;;;;;5031595;28;20956;-75
2022/12/18 10:19:37;;;;;;;46.20;23.50;;;2.30;99.90;;;;;;5048828;28;20514;-74
2022/12/18 10:22:13;;;;;;;1.33;1.30;;;2.30;99.90;;;;;;5048657;28;20416;-76
2022/12/18 10:24:46;;;;;;;0.65;0.65;;;2.30;99.90;;;;;;5041833;28;20211;-75
2022/12/18 10:27:16;;;;;;;3.92;3.33;;;2.30;99.90;;;;;;5050047;28;20202;-73
2022/12/18 10:29:46;;;;;;;0.50;0.40;;;2.40;99.90;;;;;;5048227;28;20662;-74
2022/12/18 10:32:17;;;;;;;0.50;0.50;;;2.50;99.90;;;;;;5044937;28;20264;-75
2022/12/18 10:34:47;;;;;;;2.58;1.55;;;2.50;99.90;;;;;;5050358;28;20651;-74
2022/12/18 10:37:18;;;;;;;0.50;0.40;;;2.70;99.90;;;;;;5050007;28;20648;-72
2022/12/18 10:39:45;;;;;;;0.50;0.50;;;2.80;99.90;;;;;;5047108;28;20659;-74
2022/12/18 10:42:17;;;;;;;0.50;0.40;;;3.00;99.90;;;;;;5048415;28;20616;-74
2022/12/18 10:44:45;;;;;;;0.50;0.50;;;3.10;99.90;;;;;;5048691;28;20197;-75
2022/12/18 10:47:16;;;;;;;0.50;0.40;;;3.30;99.90;;;;;;5050480;28;20199;-75
2022/12/18 10:49:50;;;;;;;0.50;0.40;;;3.30;99.90;;;;;;5043769;28;20203;-74
2022/12/18 10:52:19;;;;;;;0.50;0.50;;;3.40;99.90;;;;;;5030754;28;20221;-74
2022/12/18 10:54:51;;;;;;;0.50;0.40;;;3.50;99.90;;;;;;5035414;28;20205;-74
2022/12/18 10:57:30;;;;;;;0.50;0.50;;;3.50;99.90;;;;;;5035406;28;20286;-74
2022/12/18 11:00:00;;;;;;;0.50;0.40;;;3.60;99.90;;;;;;5040247;28;20199;-75
2022/12/18 11:02:34;;;;;;;1.33;1.25;;;3.50;99.90;;;;;;5050513;28;20291;-74
2022/12/18 11:05:01;;;;;;;0.50;0.50;;;3.40;99.90;;;;;;5047218;28;20185;-74
2022/12/18 11:07:48;;;;;;;0.50;0.40;;;3.40;99.90;;;;;;5053906;28;20201;-76
2022/12/18 11:10:18;;;;;;;0.50;0.40;;;3.40;99.90;;;;;;5053787;28;20676;-75
2022/12/18 11:12:45;;;;;;;0.50;0.50;;;3.20;99.90;;;;;;5048680;28;20215;-74
2022/12/18 11:15:19;;;;;;;0.50;0.40;;;3.20;99.90;;;;;;5053792;28;20317;-71
2022/12/18 11:17:50;;;;;;;0.50;0.40;;;3.10;99.90;;;;;;5050823;28;20562;-75
2022/12/18 11:20:32;;;;;;;1.42;1.42;;;3.10;99.90;;;;;;5049869;28;20204;-75
2022/12/18 11:23:00;;;;;;;0.82;0.82;;;3.10;99.90;;;;;;5046426;28;20195;-74
2022/12/18 11:25:31;;;;;;;1.45;1.45;;;3.20;99.90;;;;;;5049940;28;20282;-75
2022/12/18 11:28:00;;;;;;;0.50;0.40;;;3.20;99.90;;;;;;5046617;28;20672;-75
2022/12/18 11:30:31;;;;;;;0.50;0.40;;;3.20;99.90;;;;;;5053252;28;20221;-76
2022/12/18 11:33:03;;;;;;;0.50;0.40;;;3.30;99.90;;;;;;5044671;28;20193;-75
2022/12/18 11:35:43;;;;;;;0.50;0.50;;;3.30;99.90;;;;;;5042837;28;20237;-73
2022/12/18 11:38:22;;;;;;;1.17;1.17;;;3.40;99.90;;;;;;5051947;28;20196;-75
2022/12/18 11:40:56;;;;;;;0.60;0.60;;;3.40;99.90;;;;;;5053826;28;20897;-74
2022/12/18 11:43:28;;;;;;;0.50;0.50;;;3.40;99.90;;;;;;5046246;28;20218;-75
2022/12/18 11:46:04;;;;;;;0.50;0.40;;;3.40;99.90;;;;;;5049074;28;20225;-75
2022/12/18 11:48:35;;;;;;;0.50;0.40;;;3.40;99.90;;;;;;5049133;28;20202;-74
2022/12/18 11:51:09;;;;;;;0.50;0.50;;;3.40;99.90;;;;;;5052872;28;20211;-75
2022/12/18 11:53:37;;;;;;;2.15;2.05;;;3.40;99.90;;;;;;5044043;28;20683;-75
2022/12/18 11:56:20;;;;;;;0.50;0.40;;;3.30;99.90;;;;;;5052191;28;20642;-74
2022/12/18 11:58:52;;;;;;;0.50;0.40;;;3.30;99.90;;;;;;5052393;28;20282;-75
2022/12/18 12:01:35;;;;;;;0.50;0.50;;;3.20;99.90;;;;;;5052980;28;20214;-75
2022/12/18 12:04:23;;;;;;;1.25;1.08;;;3.20;99.90;;;;;;5048967;28;20194;-80
2022/12/18 12:06:59;;;;;;;0.50;0.40;;;3.20;99.90;;;;;;5051789;28;20328;-79
2022/12/18 12:09:34;;;;;;;0.50;0.40;;;3.20;99.90;;;;;;5052105;28;20779;-78
2022/12/18 12:12:22;;;;;;;0.50;0.50;;;3.10;99.90;;;;;;5043303;28;20301;-79
2022/12/18 12:15:01;;;;;;;1.50;1.40;;;3.10;99.90;;;;;;5046901;28;20218;-78
2022/12/18 12:17:38;;;;;;;1.85;1.75;;;3.10;99.90;;;;;;5046975;28;20269;-80
2022/12/18 12:20:13;;;;;;;0.50;0.50;;;3.00;99.90;;;;;;5048514;28;20656;-76
2022/12/18 12:22:49;;;;;;;3.53;1.13;;;3.00;99.90;;;;;;5048902;28;20228;-78
2022/12/18 12:25:28;;;;;;;0.60;0.60;;;2.90;99.90;;;;;;5052093;28;20594;-78
2022/12/18 12:28:16;;;;;;;0.50;0.40;;;3.00;99.90;;;;;;5050844;28;20678;-76
2022/12/18 12:30:54;;;;;;;2.30;2.20;;;3.00;99.90;;;;;;5044371;28;20227;-79
2022/12/18 12:33:37;;;;;;;2.08;1.00;;;3.00;99.90;;;;;;5040680;28;20287;-80
2022/12/18 12:36:13;;;;;;;2.55;1.55;;;3.00;99.90;;;;;;5047450;28;20252;-75
2022/12/18 12:38:45;;;;;;;0.82;0.82;;;3.00;99.90;;;;;;5050448;28;20664;-74
2022/12/18 12:44:00;;;;;;;0.50;0.50;;;3.10;99.90;;;;;;5042342;28;20273;-79
2022/12/18 12:46:28;;;;;;;1.65;1.55;;;3.10;99.90;;;;;;5052136;28;20194;-78
2022/12/18 12:48:59;;;;;;;0.93;0.93;;;3.10;99.90;;;;;;5052674;28;20194;-76
2022/12/18 12:51:29;;;;;;;1.00;0.80;;;3.00;99.90;;;;;;5053032;28;20228;-75
2022/12/18 12:53:57;;;;;;;0.50;0.40;;;3.00;99.90;;;;;;5048422;28;20198;-77
2022/12/18 12:56:45;;;;;;;1.25;0.82;;;3.00;99.90;;;;;;5049353;28;20194;-81
2022/12/18 12:59:17;;;;;;;0.50;0.50;;;3.00;99.90;;;;;;5052447;28;20183;-78
2022/12/18 13:01:54;;;;;;;0.95;0.95;;;3.00;99.90;;;;;;5051671;28;20218;-78
2022/12/18 13:04:31;;;;;;;1.25;1.25;;;3.00;99.90;;;;;;5050746;28;20194;-80
2022/12/18 13:07:04;;;;;;;1.52;1.48;;;2.90;99.90;;;;;;5052204;28;20283;-78
2022/12/18 13:09:32;;;;;;;0.50;0.40;;;2.90;99.90;;;;;;5049408;28;20556;-78
2022/12/18 13:15:14;;;;;;;1.60;1.50;;;2.80;99.90;;;;;;5050811;28;20213;-78
2022/12/18 13:17:41;;;;;;;2.97;1.60;;;2.70;99.90;;;;;;5049481;28;20195;-77